Time;durP1;ratioP1;P1;durP2;ratioP2;P2;SDS_P1;SDS_P2;PMS_P1;PMS_P2;Temp;Humidity;BMP_temperature;BMP_pressure;BME280_temperature;BME280_humidity;BME280_pressure;Samples;Min_cycle;Max_cycle;Signal;HPM_P1;HPM_P2
2022/12/05 00:00:18;;;;;;;19.70;8.80;;;3.60;99.90;;;;;;6125083;19;20558;-63
2022/12/05 00:02:24;;;;;;;16.83;8.15;;;4.00;99.90;;;;;;6125168;19;19915;-63
2022/12/05 00:04:28;;;;;;;18.77;9.60;;;3.80;99.90;;;;;;6125524;19;20327;-62
2022/12/05 00:06:33;;;;;;;19.38;9.18;;;4.10;99.90;;;;;;6125126;19;19925;-63
2022/12/05 00:08:37;;;;;;;24.35;10.02;;;;;;;;;;6124653;19;20370;-62
2022/12/05 00:10:41;;;;;;;19.60;9.63;;;4.30;99.90;;;;;;6124775;19;20363;-63
2022/12/05 00:12:45;;;;;;;20.20;9.38;;;;;;;;;;6124809;19;20274;-62
2022/12/05 00:14:49;;;;;;;18.67;8.75;;;3.70;99.90;;;;;;6123536;19;19942;-63
2022/12/05 00:16:53;;;;;;;17.70;8.65;;;;;;;;;;6124706;19;19915;-63
2022/12/05 00:19:02;;;;;;;21.13;9.80;;;4.10;99.90;;;;;;6124858;19;19919;-63
2022/12/05 00:21:06;;;;;;;20.80;9.38;;;4.10;99.90;;;;;;6124613;19;19918;-63
2022/12/05 00:23:10;;;;;;;21.35;9.60;;;3.80;99.90;;;;;;6124921;19;19943;-63
2022/12/05 00:25:14;;;;;;;22.70;9.20;;;4.00;99.90;;;;;;6124034;19;19951;-64
2022/12/05 00:27:18;;;;;;;17.00;8.75;;;4.00;99.90;;;;;;6124239;19;20373;-63
2022/12/05 00:29:22;;;;;;;18.98;9.93;;;4.10;99.90;;;;;;6124155;19;19914;-63
2022/12/05 00:31:27;;;;;;;23.67;10.25;;;3.90;99.90;;;;;;6127317;19;19919;-63
2022/12/05 00:33:31;;;;;;;20.92;9.85;;;;;;;;;;6125369;19;19919;-62
2022/12/05 00:35:38;;;;;;;20.13;9.50;;;4.00;99.90;;;;;;6124411;19;20370;-63
2022/12/05 00:37:41;;;;;;;22.88;10.20;;;4.20;99.90;;;;;;6124186;19;19918;-62
2022/12/05 00:39:45;;;;;;;23.58;10.48;;;4.40;99.90;;;;;;6124516;19;20018;-62
2022/12/05 00:41:52;;;;;;;18.85;10.25;;;;;;;;;;6124210;19;19939;-63
2022/12/05 00:43:56;;;;;;;19.73;10.25;;;4.30;99.90;;;;;;6124256;19;19943;-63
2022/12/05 00:46:03;;;;;;;23.35;10.68;;;4.30;99.90;;;;;;6123443;19;19919;-62
2022/12/05 00:48:07;;;;;;;22.95;10.30;;;4.00;99.90;;;;;;6123665;19;19928;-63
2022/12/05 00:50:11;;;;;;;19.48;9.40;;;4.20;99.90;;;;;;6126470;19;19919;-62
2022/12/05 00:52:18;;;;;;;24.45;10.60;;;4.20;99.90;;;;;;6123883;19;20322;-64
2022/12/05 00:54:22;;;;;;;25.48;11.02;;;4.20;99.90;;;;;;6122815;19;19955;-62
2022/12/05 00:56:28;;;;;;;23.50;10.07;;;4.20;99.90;;;;;;6120029;19;19955;-62
2022/12/05 00:58:32;;;;;;;19.63;9.75;;;4.60;99.90;;;;;;6129857;19;19922;-62
2022/12/05 01:00:36;;;;;;;20.45;9.57;;;4.20;99.90;;;;;;6131239;19;19922;-63
2022/12/05 01:02:40;;;;;;;21.80;10.43;;;;;;;;;;6131834;19;19974;-63
2022/12/05 01:04:44;;;;;;;26.73;11.75;;;4.30;99.90;;;;;;6132012;19;19947;-63
2022/12/05 01:06:48;;;;;;;23.73;10.50;;;4.70;99.90;;;;;;6131666;19;19922;-62
2022/12/05 01:08:56;;;;;;;21.80;9.98;;;4.30;99.90;;;;;;6130934;19;20356;-62
2022/12/05 01:11:00;;;;;;;20.52;9.80;;;3.80;99.90;;;;;;6128342;19;19919;-62
2022/12/05 01:13:04;;;;;;;25.42;10.45;;;4.00;99.90;;;;;;6130986;19;19918;-62
2022/12/05 01:15:10;;;;;;;25.42;9.77;;;4.30;99.90;;;;;;6126881;19;19951;-62
2022/12/05 01:17:14;;;;;;;21.42;9.40;;;4.40;99.90;;;;;;6130218;19;19921;-62
2022/12/05 01:19:23;;;;;;;22.38;9.57;;;4.40;99.90;;;;;;6127570;19;19947;-62
2022/12/05 01:21:28;;;;;;;21.90;10.90;;;4.20;99.90;;;;;;6129312;19;19926;-63
2022/12/05 01:23:32;;;;;;;18.08;8.75;;;;;;;;;;6129638;19;19930;-62
2022/12/05 01:25:41;;;;;;;19.15;8.75;;;4.40;99.90;;;;;;6127626;19;19934;-62
2022/12/05 01:27:45;;;;;;;16.80;8.43;;;4.10;99.90;;;;;;6128975;19;20306;-63
2022/12/05 01:29:49;;;;;;;21.02;9.93;;;4.10;99.90;;;;;;6125791;19;19922;-63
2022/12/05 01:31:54;;;;;;;21.42;9.25;;;4.40;99.90;;;;;;6130774;19;20370;-63
2022/12/05 01:34:00;;;;;;;17.95;8.48;;;4.40;99.90;;;;;;6130188;19;19934;-63
2022/12/05 01:36:06;;;;;;;16.15;8.55;;;4.00;99.90;;;;;;6131072;19;19926;-63
2022/12/05 01:38:11;;;;;;;17.20;8.75;;;4.70;99.90;;;;;;6129336;19;19915;-63
2022/12/05 01:40:16;;;;;;;17.67;8.75;;;4.60;99.90;;;;;;6130152;19;19927;-63
2022/12/05 01:42:22;;;;;;;20.05;9.13;;;4.50;99.90;;;;;;6129046;19;19919;-62
2022/12/05 01:44:56;;;;;;;18.27;8.95;;;4.30;99.90;;;;;;6128095;19;20271;-62
2022/12/05 01:47:00;;;;;;;19.42;8.15;;;4.30;99.90;;;;;;6128187;19;19923;-63
2022/12/05 01:49:09;;;;;;;13.90;8.20;;;4.70;99.90;;;;;;6128870;19;19930;-62
2022/12/05 01:51:13;;;;;;;15.57;7.72;;;4.20;99.90;;;;;;6129392;19;19930;-63
2022/12/05 01:53:18;;;;;;;18.10;7.80;;;4.50;99.90;;;;;;6126703;19;20345;-63
2022/12/05 01:55:22;;;;;;;17.77;8.20;;;4.10;99.90;;;;;;6126177;19;19918;-62
2022/12/05 01:57:29;;;;;;;16.40;8.88;;;4.50;99.90;;;;;;6127684;19;19947;-63
2022/12/05 01:59:36;;;;;;;11.55;6.85;;;4.60;99.90;;;;;;6128166;19;20392;-62
2022/12/05 02:01:40;;;;;;;13.25;6.40;;;4.50;99.90;;;;;;6129260;19;19929;-62
2022/12/05 02:03:46;;;;;;;12.15;6.10;;;4.60;99.90;;;;;;6128452;19;19950;-62
2022/12/05 02:05:53;;;;;;;13.43;6.78;;;4.80;99.90;;;;;;6130494;19;20257;-61
2022/12/05 02:07:57;;;;;;;13.27;6.97;;;4.70;99.90;;;;;;6127775;19;20349;-62
2022/12/05 02:10:01;;;;;;;13.38;6.70;;;4.50;99.90;;;;;;6127761;19;19915;-62
2022/12/05 02:12:06;;;;;;;13.65;6.28;;;4.50;99.90;;;;;;6129221;19;19951;-63
2022/12/05 02:14:25;;;;;;;15.15;6.30;;;4.10;99.90;;;;;;6119938;19;20010;-62
2022/12/05 02:16:43;;;;;;;9.80;5.30;;;4.00;99.90;;;;;;6127185;19;19939;-63
2022/12/05 02:19:00;;;;;;;14.60;5.82;;;4.70;99.90;;;;;;6126559;19;20262;-62
2022/12/05 02:21:34;;;;;;;12.63;6.03;;;4.80;99.90;;;;;;6128166;19;19910;-63
2022/12/05 02:24:05;;;;;;;10.48;5.75;;;4.70;99.90;;;;;;6127350;19;19935;-62
2022/12/05 02:26:32;;;;;;;12.45;6.18;;;4.10;99.90;;;;;;6124595;19;19918;-62
2022/12/05 02:28:49;;;;;;;9.35;5.63;;;4.50;99.90;;;;;;6127239;19;20397;-63
2022/12/05 02:30:59;;;;;;;10.73;5.30;;;4.20;99.90;;;;;;6127315;19;19922;-62
2022/12/05 02:33:10;;;;;;;9.75;5.18;;;4.80;99.90;;;;;;6127047;19;20263;-63
2022/12/05 02:35:25;;;;;;;10.55;5.80;;;4.30;99.90;;;;;;6127759;19;19919;-62
2022/12/05 02:37:31;;;;;;;11.70;6.03;;;4.50;99.90;;;;;;6126993;19;19932;-61
2022/12/05 02:39:45;;;;;;;12.32;5.60;;;4.30;99.90;;;;;;6125539;19;19922;-62
2022/12/05 02:41:53;;;;;;;9.50;4.75;;;4.70;99.90;;;;;;6127076;19;19914;-63
2022/12/05 02:44:02;;;;;;;11.70;5.07;;;4.40;99.90;;;;;;6127435;19;20287;-63
2022/12/05 02:46:12;;;;;;;9.55;5.65;;;4.60;99.90;;;;;;6127563;19;19915;-63
2022/12/05 02:48:18;;;;;;;8.55;4.53;;;4.60;99.90;;;;;;6126495;19;19955;-63
2022/12/05 02:50:26;;;;;;;10.70;5.85;;;4.50;99.90;;;;;;6129213;19;20424;-63
2022/12/05 02:52:32;;;;;;;9.50;5.20;;;4.60;99.90;;;;;;6126870;19;20013;-63
2022/12/05 02:54:40;;;;;;;8.75;4.40;;;4.50;99.90;;;;;;6126018;19;19958;-62
2022/12/05 02:56:47;;;;;;;8.63;4.93;;;4.80;99.90;;;;;;6126093;19;19929;-63
2022/12/05 02:58:55;;;;;;;8.90;4.88;;;4.70;99.90;;;;;;6129601;19;19919;-63
2022/12/05 03:01:00;;;;;;;7.22;4.03;;;4.30;99.90;;;;;;6129408;19;20374;-64
2022/12/05 03:03:15;;;;;;;8.68;4.65;;;4.40;99.90;;;;;;6125727;19;19915;-63
2022/12/05 03:05:26;;;;;;;9.18;4.75;;;4.70;99.90;;;;;;6127802;19;19926;-62
2022/12/05 03:07:33;;;;;;;9.35;4.43;;;4.20;99.90;;;;;;6127740;19;20372;-62
2022/12/05 03:09:39;;;;;;;8.75;5.03;;;4.50;99.90;;;;;;6127716;19;19923;-63
2022/12/05 03:11:47;;;;;;;7.80;4.57;;;4.60;99.90;;;;;;6126297;19;20734;-62
2022/12/05 03:13:54;;;;;;;8.52;5.15;;;4.50;99.90;;;;;;6127218;19;19918;-63
2022/12/05 03:16:02;;;;;;;8.27;4.35;;;4.60;99.90;;;;;;6126061;19;19926;-63
2022/12/05 03:18:12;;;;;;;7.55;4.30;;;4.70;99.90;;;;;;6127689;19;20277;-63
2022/12/05 03:20:23;;;;;;;9.25;5.18;;;4.10;99.90;;;;;;6126061;19;19914;-63
2022/12/05 03:22:33;;;;;;;7.60;4.70;;;5.20;99.90;;;;;;6130116;19;19939;-63
2022/12/05 03:24:40;;;;;;;7.00;4.03;;;4.60;99.90;;;;;;6126266;19;19929;-63
2022/12/05 03:26:52;;;;;;;9.30;4.90;;;4.50;99.90;;;;;;6124184;19;19930;-63
2022/12/05 03:29:04;;;;;;;7.43;3.92;;;4.10;99.90;;;;;;6125958;19;19947;-63
2022/12/05 03:31:14;;;;;;;7.25;4.57;;;4.60;99.90;;;;;;6125745;19;19948;-62
2022/12/05 03:33:23;;;;;;;6.60;3.75;;;4.30;99.90;;;;;;6122335;19;20365;-62
2022/12/05 03:35:37;;;;;;;7.05;3.85;;;4.80;99.90;;;;;;6125034;19;19919;-63
2022/12/05 03:37:49;;;;;;;5.53;3.55;;;4.40;99.90;;;;;;6127440;19;20278;-62
2022/12/05 03:40:02;;;;;;;6.20;3.42;;;4.50;99.90;;;;;;6125525;19;20338;-63
2022/12/05 03:42:12;;;;;;;7.20;3.58;;;4.80;99.90;;;;;;6125543;19;20000;-62
2022/12/05 03:44:21;;;;;;;5.97;3.38;;;4.60;99.90;;;;;;6125396;19;19918;-62
2022/12/05 03:46:28;;;;;;;5.93;3.58;;;4.50;99.90;;;;;;6125296;19;19952;-63
2022/12/05 03:48:39;;;;;;;5.70;3.63;;;4.20;99.90;;;;;;6126701;19;19918;-62
2022/12/05 03:50:47;;;;;;;9.23;3.90;;;4.60;99.90;;;;;;6125470;19;19915;-62
2022/12/05 03:52:56;;;;;;;6.03;3.58;;;4.30;99.90;;;;;;6125152;19;20274;-63
2022/12/05 03:55:04;;;;;;;6.28;3.28;;;4.30;99.90;;;;;;6125788;19;19910;-62
2022/12/05 03:57:14;;;;;;;6.15;3.38;;;4.50;99.90;;;;;;6124495;19;19943;-62
2022/12/05 03:59:26;;;;;;;7.40;3.75;;;4.40;99.90;;;;;;6127529;19;19939;-62
2022/12/05 04:01:33;;;;;;;8.52;3.90;;;4.20;99.90;;;;;;6125184;19;19915;-62
2022/12/05 04:03:44;;;;;;;4.38;3.10;;;4.50;99.90;;;;;;6120197;19;20382;-62
2022/12/05 04:05:52;;;;;;;8.27;3.33;;;4.50;99.90;;;;;;6124882;19;19982;-62
2022/12/05 04:08:01;;;;;;;4.35;2.88;;;4.40;99.90;;;;;;6125001;19;19918;-62
2022/12/05 04:10:07;;;;;;;;;;;4.60;99.90;;;;;;6128340;19;19915;-62
2022/12/05 04:12:16;;;;;;;5.82;3.05;;;4.80;99.90;;;;;;6127690;19;20336;-62
2022/12/05 04:14:23;;;;;;;4.88;2.42;;;4.90;99.90;;;;;;6124731;19;20381;-62
2022/12/05 04:18:57;;;;;;;6.63;3.67;;;4.30;99.90;;;;;;6124949;19;19922;-62
2022/12/05 04:23:21;;;;;;;5.47;3.05;;;4.30;99.90;;;;;;6124501;19;20353;-62
2022/12/05 04:25:34;;;;;;;4.18;2.50;;;4.50;99.90;;;;;;6124000;19;19944;-62
2022/12/05 04:27:44;;;;;;;3.95;2.83;;;4.80;99.90;;;;;;6126631;19;19939;-62
2022/12/05 04:29:54;;;;;;;4.97;3.03;;;4.70;99.90;;;;;;6127447;19;19962;-62
2022/12/05 04:32:02;;;;;;;4.30;2.55;;;4.60;99.90;;;;;;6127722;19;20357;-62
2022/12/05 04:34:12;;;;;;;3.88;2.65;;;4.60;99.90;;;;;;6129391;19;19952;-62
2022/12/05 04:36:21;;;;;;;5.20;2.90;;;4.40;99.90;;;;;;6128433;19;19922;-62
2022/12/05 04:38:29;;;;;;;5.95;2.90;;;4.60;99.90;;;;;;6129867;19;19943;-62
2022/12/05 04:40:38;;;;;;;5.05;3.13;;;4.50;99.90;;;;;;6130090;19;19921;-62
2022/12/05 04:42:45;;;;;;;4.80;2.53;;;4.70;99.90;;;;;;6129559;19;19925;-64
2022/12/05 04:44:52;;;;;;;6.95;2.85;;;4.70;99.90;;;;;;6129598;19;19922;-62
2022/12/05 04:46:58;;;;;;;4.72;2.45;;;4.60;99.90;;;;;;6129860;19;20246;-62
2022/12/05 04:49:07;;;;;;;4.63;2.40;;;4.80;99.90;;;;;;6131508;19;19930;-62
2022/12/05 04:51:20;;;;;;;4.95;2.92;;;4.90;99.90;;;;;;6129883;19;19919;-62
2022/12/05 04:53:28;;;;;;;4.32;2.30;;;5.10;99.90;;;;;;6129451;19;20252;-62
2022/12/05 04:55:36;;;;;;;4.13;2.33;;;4.60;99.90;;;;;;6128562;19;19939;-62
2022/12/05 04:57:45;;;;;;;3.83;2.15;;;4.80;99.90;;;;;;6131143;19;19914;-62
2022/12/05 04:59:49;;;;;;;4.55;2.67;;;5.00;99.90;;;;;;6127634;19;20247;-62
2022/12/05 05:01:57;;;;;;;4.47;2.22;;;4.50;99.90;;;;;;6129629;19;19923;-62
2022/12/05 05:04:08;;;;;;;5.97;2.92;;;4.70;99.90;;;;;;6130673;19;20325;-62
2022/12/05 05:06:15;;;;;;;4.93;2.67;;;4.80;99.90;;;;;;6129366;19;19936;-62
2022/12/05 05:08:21;;;;;;;3.90;2.35;;;4.60;99.90;;;;;;6129140;19;19917;-62
2022/12/05 05:10:36;;;;;;;4.72;2.55;;;4.80;99.90;;;;;;6129163;19;19939;-62
2022/12/05 05:12:40;;;;;;;4.38;2.30;;;4.70;99.90;;;;;;6128772;19;19922;-62
2022/12/05 05:14:44;;;;;;;9.15;3.03;;;4.50;99.90;;;;;;6129136;19;20298;-62
2022/12/05 05:16:47;;;;;;;3.47;2.28;;;4.60;99.90;;;;;;6126664;19;19915;-63
2022/12/05 05:18:52;;;;;;;4.85;2.53;;;4.60;99.90;;;;;;6130188;19;19918;-62
2022/12/05 05:20:56;;;;;;;5.38;3.10;;;;;;;;;;6128660;19;19943;-62
2022/12/05 05:23:03;;;;;;;5.32;2.83;;;4.80;99.90;;;;;;6129301;19;19935;-62
2022/12/05 05:25:07;;;;;;;4.15;2.92;;;4.40;99.90;;;;;;6128779;19;19935;-63
2022/12/05 05:27:11;;;;;;;5.18;2.65;;;4.40;99.90;;;;;;6126263;19;19922;-62
2022/12/05 05:29:16;;;;;;;5.65;3.13;;;4.50;99.90;;;;;;6130621;19;19918;-62
2022/12/05 05:31:22;;;;;;;3.47;2.30;;;4.80;99.90;;;;;;6131129;19;20272;-62
2022/12/05 05:33:26;;;;;;;5.28;2.90;;;;;;;;;;6123322;19;20023;-62
2022/12/05 05:35:30;;;;;;;4.68;3.17;;;;;;;;;;6126825;19;20257;-62
2022/12/05 05:37:34;;;;;;;6.80;2.55;;;4.90;99.90;;;;;;6127328;19;19922;-62
2022/12/05 05:39:40;;;;;;;5.63;3.30;;;4.60;99.90;;;;;;6128064;19;20345;-62
2022/12/05 05:41:45;;;;;;;4.97;2.78;;;4.70;99.90;;;;;;6130559;19;19918;-62
2022/12/05 05:43:49;;;;;;;7.43;3.03;;;;;;;;;;6127948;19;19929;-62
2022/12/05 05:45:53;;;;;;;4.57;2.95;;;4.60;99.90;;;;;;6128449;19;20364;-61
2022/12/05 05:47:57;;;;;;;5.55;3.08;;;;;;;;;;6126696;19;19919;-62
2022/12/05 05:50:01;;;;;;;5.03;3.05;;;4.40;99.90;;;;;;6128157;19;19915;-62
2022/12/05 05:52:05;;;;;;;6.10;3.65;;;4.90;99.90;;;;;;6127957;19;19918;-62
2022/12/05 05:54:09;;;;;;;7.07;3.15;;;4.80;99.90;;;;;;6130128;19;19927;-62
2022/12/05 05:56:17;;;;;;;6.55;3.67;;;4.70;99.90;;;;;;6128539;19;19919;-62
2022/12/05 05:58:22;;;;;;;5.60;3.33;;;;;;;;;;6128231;19;19974;-62
2022/12/05 06:00:26;;;;;;;5.28;3.40;;;5.00;99.90;;;;;;6130594;19;19915;-62
2022/12/05 06:02:34;;;;;;;7.15;3.28;;;4.80;99.90;;;;;;6128113;19;19907;-62
2022/12/05 06:04:38;;;;;;;4.95;2.92;;;4.50;99.90;;;;;;6127688;19;20267;-62
2022/12/05 06:06:42;;;;;;;5.80;3.28;;;4.80;99.90;;;;;;6128009;19;19918;-62
2022/12/05 06:08:47;;;;;;;5.60;3.35;;;4.40;99.90;;;;;;6126515;19;20253;-62
2022/12/05 06:10:51;;;;;;;5.90;3.08;;;;;;;;;;6129606;19;20408;-62
2022/12/05 06:12:57;;;;;;;6.97;3.75;;;5.80;99.90;;;;;;6127861;19;19944;-62
2022/12/05 06:15:01;;;;;;;5.20;3.15;;;;;;;;;;6127731;19;19918;-63
2022/12/05 06:17:05;;;;;;;7.07;3.75;;;4.50;99.90;;;;;;6126038;19;19921;-62
2022/12/05 06:19:09;;;;;;;6.32;3.00;;;4.50;99.90;;;;;;6127305;19;19943;-62
2022/12/05 06:21:13;;;;;;;4.75;2.80;;;4.80;99.90;;;;;;6130232;19;19918;-62
2022/12/05 06:23:17;;;;;;;4.90;2.67;;;4.40;99.90;;;;;;6126810;19;19919;-62
2022/12/05 06:25:21;;;;;;;4.45;2.78;;;4.50;99.90;;;;;;6126156;19;19922;-62
2022/12/05 06:27:25;;;;;;;5.22;3.20;;;4.50;99.90;;;;;;6128479;19;19911;-62
2022/12/05 06:29:31;;;;;;;6.03;3.17;;;4.40;99.90;;;;;;6127898;19;19918;-62
2022/12/05 06:31:35;;;;;;;5.22;2.42;;;;;;;;;;6127475;19;19923;-63
2022/12/05 06:33:40;;;;;;;4.20;2.72;;;4.50;99.90;;;;;;6127899;19;20302;-62
2022/12/05 06:35:45;;;;;;;5.50;2.88;;;;;;;;;;6126843;19;19922;-62
2022/12/05 06:37:48;;;;;;;5.68;3.10;;;4.50;99.90;;;;;;6126881;19;19940;-62
2022/12/05 06:39:53;;;;;;;5.40;2.80;;;4.70;99.90;;;;;;6130127;19;19954;-62
2022/12/05 06:41:57;;;;;;;10.00;3.20;;;4.50;99.90;;;;;;6129825;19;19929;-62
2022/12/05 06:44:01;;;;;;;6.38;2.80;;;4.60;99.90;;;;;;6126805;19;19959;-62
2022/12/05 06:46:10;;;;;;;6.00;3.28;;;4.40;99.90;;;;;;6126399;19;19918;-62
2022/12/05 06:48:15;;;;;;;5.45;2.28;;;4.60;99.90;;;;;;6128963;19;19926;-62
2022/12/05 06:50:19;;;;;;;7.22;3.13;;;;;;;;;;6128962;19;20613;-62
2022/12/05 06:52:23;;;;;;;4.57;2.60;;;;;;;;;;6126694;19;20006;-62
2022/12/05 06:54:27;;;;;;;5.47;2.95;;;;;;;;;;6124572;19;19922;-63
2022/12/05 06:56:31;;;;;;;5.28;2.78;;;;;;;;;;6123530;19;19926;-62
2022/12/05 06:58:36;;;;;;;8.52;3.33;;;;;;;;;;6127374;19;20315;-62
2022/12/05 07:02:59;;;;;;;7.95;3.10;;;4.60;99.90;;;;;;6127332;19;19932;-66
2022/12/05 07:05:03;;;;;;;6.63;3.42;;;4.40;99.90;;;;;;6127942;19;20500;-67
2022/12/05 07:07:07;;;;;;;5.72;2.97;;;4.70;99.90;;;;;;6126114;19;19947;-67
2022/12/05 07:09:12;;;;;;;6.63;3.30;;;4.60;99.90;;;;;;6128355;19;19922;-66
2022/12/05 07:11:16;;;;;;;7.90;3.70;;;5.10;99.90;;;;;;6126208;19;20718;-67
2022/12/05 07:13:20;;;;;;;7.85;3.67;;;4.40;99.90;;;;;;6126272;19;19926;-65
2022/12/05 07:15:24;;;;;;;7.40;3.58;;;;;;;;;;6126030;19;20293;-66
2022/12/05 07:17:28;;;;;;;7.68;3.72;;;4.60;99.90;;;;;;6124607;19;20334;-62
2022/12/05 07:19:34;;;;;;;6.60;3.50;;;4.50;99.90;;;;;;6127167;19;19919;-61
2022/12/05 07:21:38;;;;;;;7.57;4.00;;;4.50;99.90;;;;;;6126131;19;19955;-62
2022/12/05 07:23:42;;;;;;;9.60;3.85;;;;;;;;;;6129285;19;20300;-63
2022/12/05 07:25:46;;;;;;;8.45;3.78;;;4.70;99.90;;;;;;6124878;19;19943;-62
2022/12/05 07:27:50;;;;;;;12.88;4.07;;;;;;;;;;6124900;19;19925;-62
2022/12/05 07:29:54;;;;;;;9.52;3.60;;;4.60;99.90;;;;;;6125445;19;19919;-62
2022/12/05 07:31:59;;;;;;;9.48;4.10;;;;;;;;;;6125596;19;19943;-62
2022/12/05 07:34:02;;;;;;;6.30;3.60;;;5.10;99.90;;;;;;6125730;19;19925;-62
2022/12/05 07:36:11;;;;;;;6.32;3.38;;;4.70;99.90;;;;;;6124549;19;19948;-62
2022/12/05 07:38:15;;;;;;;6.97;3.88;;;4.80;99.90;;;;;;6125531;19;19918;-62
2022/12/05 07:40:19;;;;;;;8.75;3.13;;;4.80;99.90;;;;;;6125583;19;20276;-62
2022/12/05 07:42:23;;;;;;;7.55;3.78;;;4.70;99.90;;;;;;6125171;19;19914;-61
2022/12/05 07:44:27;;;;;;;7.82;3.35;;;;;;;;;;6125078;19;19911;-61
2022/12/05 07:46:31;;;;;;;6.90;3.15;;;4.70;99.90;;;;;;6124980;19;19943;-62
2022/12/05 07:48:35;;;;;;;5.85;3.17;;;4.60;99.90;;;;;;6124956;19;19947;-62
2022/12/05 07:50:39;;;;;;;5.22;2.97;;;4.50;99.90;;;;;;6124587;19;19959;-62
2022/12/05 07:52:46;;;;;;;10.95;3.55;;;4.40;99.90;;;;;;6126626;19;19948;-62
2022/12/05 07:54:50;;;;;;;7.70;3.55;;;;;;;;;;6124486;19;19914;-62
2022/12/05 07:56:54;;;;;;;7.13;3.22;;;4.50;99.90;;;;;;6123766;19;20303;-62
2022/12/05 07:58:58;;;;;;;6.10;2.95;;;;;;;;;;6124437;19;20290;-62
2022/12/05 08:01:08;;;;;;;8.93;3.38;;;4.70;99.90;;;;;;6124680;19;19918;-62
2022/12/05 08:03:12;;;;;;;6.88;3.25;;;4.60;99.90;;;;;;6124695;19;19944;-63
2022/12/05 08:05:16;;;;;;;6.15;3.53;;;4.50;99.90;;;;;;6124936;19;19943;-62
2022/12/05 08:07:21;;;;;;;5.22;3.15;;;;;;;;;;6124929;19;19926;-63
2022/12/05 08:09:27;;;;;;;7.07;3.95;;;4.60;99.90;;;;;;6124544;19;19919;-62
2022/12/05 08:11:34;;;;;;;8.25;3.45;;;5.20;99.90;;;;;;6124817;19;19914;-62
2022/12/05 08:13:39;;;;;;;5.85;3.15;;;4.60;99.90;;;;;;6124424;19;20348;-62
2022/12/05 08:15:43;;;;;;;7.22;3.33;;;4.70;99.90;;;;;;6124510;19;19936;-62
2022/12/05 08:17:46;;;;;;;5.70;3.10;;;4.30;99.90;;;;;;6123253;19;19940;-62
2022/12/05 08:19:50;;;;;;;5.85;2.80;;;4.80;99.90;;;;;;6124145;19;19919;-62
2022/12/05 08:22:14;;;;;;;12.45;5.43;;;4.90;99.90;;;;;;6122063;19;19918;-62
2022/12/05 08:24:18;;;;;;;9.45;3.53;;;4.60;99.90;;;;;;6124334;19;19910;-62
2022/12/05 08:26:26;;;;;;;7.25;3.35;;;4.60;99.90;;;;;;6122995;19;19938;-63
2022/12/05 08:28:31;;;;;;;7.82;3.30;;;4.70;99.90;;;;;;6125077;19;19919;-62
2022/12/05 08:30:35;;;;;;;7.18;3.75;;;4.70;99.90;;;;;;6125308;19;19990;-62
2022/12/05 08:32:39;;;;;;;7.18;4.03;;;4.60;99.90;;;;;;6124141;19;19911;-64
2022/12/05 08:34:43;;;;;;;7.18;3.72;;;;;;;;;;6124159;19;19923;-62
2022/12/05 08:36:47;;;;;;;8.35;3.72;;;4.80;99.90;;;;;;6123712;19;20504;-62
2022/12/05 08:38:51;;;;;;;5.63;3.17;;;4.80;99.90;;;;;;6115661;19;20006;-62
2022/12/05 08:40:55;;;;;;;6.63;3.53;;;4.60;99.90;;;;;;6123932;19;20242;-62
2022/12/05 08:43:02;;;;;;;6.80;3.08;;;4.70;99.90;;;;;;6123941;19;19923;-62
2022/12/05 08:45:06;;;;;;;6.97;3.30;;;4.70;99.90;;;;;;6123746;19;20282;-64
2022/12/05 08:47:10;;;;;;;5.28;3.00;;;4.60;99.90;;;;;;6123534;19;19943;-63
2022/12/05 08:49:14;;;;;;;7.63;3.42;;;4.90;99.90;;;;;;6118262;19;20398;-63
2022/12/05 08:51:18;;;;;;;8.13;3.63;;;5.00;99.90;;;;;;6124192;19;19951;-63
2022/12/05 08:53:23;;;;;;;8.18;3.55;;;4.50;99.90;;;;;;6123152;19;19925;-63
2022/12/05 08:55:26;;;;;;;7.93;3.67;;;4.80;99.90;;;;;;6123915;19;19943;-63
2022/12/05 08:57:30;;;;;;;7.63;3.83;;;4.80;99.90;;;;;;6122441;19;19933;-63
2022/12/05 08:59:37;;;;;;;7.57;3.28;;;4.90;99.90;;;;;;6126114;19;19933;-62
2022/12/05 09:01:41;;;;;;;9.68;4.35;;;4.90;99.90;;;;;;6123089;19;19915;-62
2022/12/05 09:03:46;;;;;;;7.43;3.30;;;4.60;99.90;;;;;;6123254;19;19919;-62
2022/12/05 09:05:50;;;;;;;7.68;3.67;;;;;;;;;;6121706;19;19918;-63
2022/12/05 09:07:54;;;;;;;6.97;3.88;;;4.70;99.90;;;;;;6123280;19;20424;-63
2022/12/05 09:09:58;;;;;;;5.20;3.60;;;4.40;99.90;;;;;;6123173;19;20343;-62
2022/12/05 09:12:01;;;;;;;7.93;3.90;;;4.30;99.90;;;;;;6122791;19;20018;-63
2022/12/05 09:14:06;;;;;;;7.57;3.90;;;4.90;99.90;;;;;;6125311;19;19922;-62
2022/12/05 09:16:15;;;;;;;6.20;3.47;;;4.60;99.90;;;;;;6123091;19;19919;-63
2022/12/05 09:18:19;;;;;;;7.70;3.60;;;4.40;99.90;;;;;;6121756;19;19994;-62
2022/12/05 09:20:23;;;;;;;7.88;3.38;;;;;;;;;;6129250;19;19918;-62
2022/12/05 09:22:27;;;;;;;6.53;3.28;;;4.50;99.90;;;;;;6127593;19;20290;-63
2022/12/05 09:24:31;;;;;;;6.82;3.47;;;;;;;;;;6128728;19;19918;-62
2022/12/05 09:26:35;;;;;;;8.60;4.07;;;;;;;;;;6127091;19;19933;-63
2022/12/05 09:28:39;;;;;;;11.23;4.25;;;4.60;99.90;;;;;;6129199;19;19923;-64
2022/12/05 09:30:43;;;;;;;7.45;3.67;;;;;;;;;;6128512;19;19939;-63
2022/12/05 09:32:50;;;;;;;8.05;3.85;;;4.90;99.90;;;;;;6128371;19;20343;-64
2022/12/05 09:34:54;;;;;;;7.75;3.55;;;5.00;99.90;;;;;;6128571;19;20308;-63
2022/12/05 09:36:59;;;;;;;7.35;3.85;;;4.60;99.90;;;;;;6127071;19;20313;-64
2022/12/05 09:39:05;;;;;;;6.88;3.30;;;4.80;99.90;;;;;;6128701;19;20360;-63
2022/12/05 09:41:20;;;;;;;7.00;3.58;;;4.50;99.90;;;;;;6128440;19;19921;-63
2022/12/05 09:43:32;;;;;;;7.53;3.45;;;4.90;99.90;;;;;;6128277;19;19916;-62
2022/12/05 09:45:40;;;;;;;8.57;3.90;;;4.80;99.90;;;;;;6130543;19;19935;-64
2022/12/05 09:47:56;;;;;;;8.05;3.50;;;4.80;99.90;;;;;;6128599;19;19939;-63
2022/12/05 09:50:04;;;;;;;8.18;3.15;;;4.90;99.90;;;;;;6128573;19;19944;-63
2022/12/05 09:52:08;;;;;;;6.38;3.30;;;;;;;;;;6128104;19;19910;-63
2022/12/05 09:54:13;;;;;;;8.40;3.97;;;5.10;99.90;;;;;;6127866;19;20272;-62
2022/12/05 09:56:25;;;;;;;9.48;4.25;;;4.80;99.90;;;;;;6127567;19;19921;-63
2022/12/05 09:58:39;;;;;;;6.95;3.70;;;4.60;99.90;;;;;;6126337;19;19972;-63
2022/12/05 10:00:44;;;;;;;10.05;3.63;;;5.00;99.90;;;;;;6127856;19;19918;-62
2022/12/05 10:02:59;;;;;;;7.10;3.45;;;4.60;99.90;;;;;;6127758;19;20308;-62
2022/12/05 10:05:09;;;;;;;5.88;2.92;;;4.80;99.90;;;;;;6127672;19;19919;-62
2022/12/05 10:07:19;;;;;;;4.38;2.65;;;4.80;99.90;;;;;;6127728;19;19921;-62
2022/12/05 10:09:49;;;;;;;6.32;3.05;;;4.80;99.90;;;;;;6127958;19;19947;-62
2022/12/05 10:12:00;;;;;;;6.38;3.10;;;5.20;99.90;;;;;;6127519;19;19915;-62
2022/12/05 10:14:10;;;;;;;4.72;2.90;;;4.60;99.90;;;;;;6128958;19;19910;-62
2022/12/05 10:16:21;;;;;;;4.80;3.03;;;5.40;99.90;;;;;;6127857;19;19919;-62
2022/12/05 10:18:37;;;;;;;7.03;3.40;;;4.70;99.90;;;;;;6126323;19;19921;-63
2022/12/05 10:20:48;;;;;;;6.93;3.45;;;4.60;99.90;;;;;;6127661;19;19922;-63
2022/12/05 10:22:56;;;;;;;5.43;3.00;;;4.80;99.90;;;;;;6126402;19;19918;-61
2022/12/05 10:25:04;;;;;;;7.95;3.20;;;5.00;99.90;;;;;;6127790;19;19915;-61
2022/12/05 10:27:13;;;;;;;7.85;3.28;;;5.10;99.90;;;;;;6125133;19;19943;-63
2022/12/05 10:29:25;;;;;;;4.80;3.03;;;5.20;99.90;;;;;;6129347;19;20275;-62
2022/12/05 10:31:31;;;;;;;5.43;3.45;;;5.00;99.90;;;;;;6124958;19;19918;-62
2022/12/05 10:33:40;;;;;;;6.80;3.28;;;4.80;99.90;;;;;;6128911;19;19918;-63
2022/12/05 10:35:45;;;;;;;7.35;3.40;;;5.00;99.90;;;;;;6127516;19;19951;-63
2022/12/05 10:37:52;;;;;;;6.32;3.20;;;5.00;99.90;;;;;;6126472;19;19918;-63
2022/12/05 10:39:56;;;;;;;7.35;3.25;;;5.20;99.90;;;;;;6129110;19;19937;-63
2022/12/05 10:42:00;;;;;;;6.15;2.60;;;5.10;99.90;;;;;;6126610;19;20423;-64
2022/12/05 10:44:04;;;;;;;7.85;3.15;;;5.70;99.90;;;;;;6126679;19;19939;-61
2022/12/05 10:46:08;;;;;;;6.97;3.53;;;4.90;99.90;;;;;;6126997;19;19915;-61
2022/12/05 10:48:15;;;;;;;8.73;3.55;;;5.00;99.90;;;;;;6126152;19;19922;-61
2022/12/05 10:50:29;;;;;;;7.60;3.75;;;4.80;99.90;;;;;;6126404;19;19956;-61
2022/12/05 10:52:34;;;;;;;6.85;3.70;;;4.80;99.90;;;;;;6126509;19;19944;-63
2022/12/05 10:54:44;;;;;;;6.05;3.50;;;4.90;99.90;;;;;;6128505;19;19930;-63
2022/12/05 10:56:50;;;;;;;5.20;3.03;;;4.90;99.90;;;;;;6126094;19;20256;-63
2022/12/05 10:58:57;;;;;;;8.50;3.45;;;4.70;99.90;;;;;;6124905;19;20266;-63
2022/12/05 11:01:10;;;;;;;5.78;3.15;;;4.90;99.90;;;;;;6126298;19;19918;-62
2022/12/05 11:03:27;;;;;;;8.35;3.15;;;5.20;99.90;;;;;;6127255;19;20405;-64
2022/12/05 11:05:37;;;;;;;7.97;3.13;;;5.30;99.90;;;;;;6126317;19;20256;-64
2022/12/05 11:07:49;;;;;;;5.45;2.97;;;5.30;99.90;;;;;;6126266;19;19923;-63
2022/12/05 11:09:54;;;;;;;6.70;3.13;;;4.90;99.90;;;;;;6126071;19;19943;-65
2022/12/05 11:12:17;;;;;;;5.75;2.70;;;5.10;99.90;;;;;;6126391;19;19919;-63
2022/12/05 11:14:25;;;;;;;5.03;3.03;;;4.90;99.90;;;;;;6126210;19;19919;-62
2022/12/05 11:16:33;;;;;;;7.18;3.20;;;5.00;99.90;;;;;;6117244;19;19922;-63
2022/12/05 11:18:40;;;;;;;6.50;3.40;;;5.20;99.90;;;;;;6123869;19;19922;-65
2022/12/05 11:20:46;;;;;;;6.70;2.95;;;4.80;99.90;;;;;;6125791;19;20498;-64
2022/12/05 11:22:51;;;;;;;5.10;2.58;;;5.10;99.90;;;;;;6126071;19;19951;-65